createdAt,value
2022-12-23T00:01:22.923Z,6.45
2022-12-23T00:03:50.779Z,6.80
2022-12-23T00:06:18.322Z,6.78
2022-12-23T00:08:46.601Z,6.75
2022-12-23T00:11:15.663Z,6.88
2022-12-23T00:14:01.732Z,7.22
2022-12-23T00:16:29.090Z,6.65
2022-12-23T00:18:56.543Z,7.43
2022-12-23T00:21:24.074Z,7.22
2022-12-23T00:23:51.886Z,7.00
2022-12-23T00:26:21.269Z,7.15
2022-12-23T00:31:18.728Z,6.93
2022-12-23T00:33:47.374Z,7.18
2022-12-23T00:36:28.396Z,7.10
2022-12-23T00:39:14.537Z,6.75
2022-12-23T00:42:01.005Z,6.50
2022-12-23T00:44:28.412Z,6.57
2022-12-23T00:46:55.749Z,6.78
2022-12-23T00:49:41.493Z,6.47
2022-12-23T00:52:10.421Z,5.88
2022-12-23T00:54:37.689Z,5.95
2022-12-23T00:57:05.338Z,6.05
2022-12-23T00:59:32.616Z,6.15
2022-12-23T01:02:18.502Z,6.63
2022-12-23T01:05:04.302Z,6.25
2022-12-23T01:07:31.667Z,6.13
2022-12-23T01:09:58.961Z,5.97
2022-12-23T01:12:26.367Z,5.65
2022-12-23T01:14:53.648Z,5.57
2022-12-23T01:17:20.980Z,5.13
2022-12-23T01:19:48.326Z,5.13
2022-12-23T01:22:15.564Z,5.47
2022-12-23T01:24:42.874Z,5.70
2022-12-23T01:27:10.206Z,5.60
2022-12-23T01:29:37.572Z,5.05
2022-12-23T01:32:04.994Z,5.70
2022-12-23T01:34:36.743Z,5.60
2022-12-23T01:37:05.104Z,5.97
2022-12-23T01:39:32.357Z,5.40
2022-12-23T01:42:18.266Z,6.32
2022-12-23T01:44:56.254Z,5.65
2022-12-23T01:47:33.275Z,5.93
2022-12-23T01:50:05.633Z,5.63
2022-12-23T01:52:35.389Z,6.00
2022-12-23T01:55:02.720Z,5.68
2022-12-23T01:57:30.268Z,6.00
2022-12-23T02:00:15.987Z,5.43
2022-12-23T02:03:03.539Z,5.97
2022-12-23T02:05:31.022Z,5.38
2022-12-23T02:08:17.461Z,5.28
2022-12-23T02:11:06.237Z,5.28
2022-12-23T02:16:16.598Z,5.10
2022-12-23T02:18:58.765Z,5.05
2022-12-23T02:21:30.529Z,5.30
2022-12-23T02:24:16.760Z,5.40
2022-12-23T02:26:47.047Z,5.63
2022-12-23T02:29:39.804Z,5.50
2022-12-23T02:32:25.458Z,5.40
2022-12-23T02:34:52.674Z,5.07
2022-12-23T02:37:38.840Z,5.90
2022-12-23T02:40:06.104Z,5.20
2022-12-23T02:42:38.871Z,5.10
2022-12-23T02:45:18.311Z,5.43
2022-12-23T02:47:49.102Z,5.38
2022-12-23T02:50:19.101Z,5.18
2022-12-23T02:52:48.215Z,5.10
2022-12-23T02:55:18.401Z,5.18
2022-12-23T02:57:47.684Z,5.20
2022-12-23T03:00:15.413Z,5.35
2022-12-23T03:02:43.963Z,5.68
2022-12-23T03:05:24.682Z,5.43
2022-12-23T03:07:52.577Z,5.43
2022-12-23T03:10:46.277Z,5.47
2022-12-23T03:13:32.405Z,5.85
2022-12-23T03:16:23.104Z,5.63
2022-12-23T03:19:01.029Z,6.05
2022-12-23T03:21:31.261Z,6.00
2022-12-23T03:24:11.704Z,5.32
2022-12-23T03:26:48.813Z,5.88
2022-12-23T03:29:42.484Z,6.00
2022-12-23T03:32:11.868Z,5.60
2022-12-23T03:37:08.660Z,5.43
2022-12-23T03:39:39.589Z,5.82
2022-12-23T03:42:11.690Z,5.80
2022-12-23T03:44:57.139Z,5.90
2022-12-23T03:47:30.887Z,5.70
2022-12-23T03:50:03.460Z,5.45
2022-12-23T03:52:34.017Z,6.05
2022-12-23T03:55:03.894Z,6.15
2022-12-23T03:57:59.720Z,5.05
2022-12-23T04:00:28.677Z,5.30
2022-12-23T04:03:06.689Z,5.15
2022-12-23T04:05:36.355Z,5.88
2022-12-23T04:08:22.378Z,5.38
2022-12-23T04:10:49.857Z,5.15
2022-12-23T04:13:17.189Z,5.53
2022-12-23T04:15:44.487Z,5.53
2022-12-23T04:18:12.053Z,5.50
2022-12-23T04:20:39.376Z,5.28
2022-12-23T04:23:06.660Z,4.72
2022-12-23T04:25:33.880Z,4.50
2022-12-23T04:28:01.917Z,4.93
2022-12-23T04:30:33.872Z,4.57
2022-12-23T04:33:02.120Z,4.70
2022-12-23T04:35:29.952Z,4.93
2022-12-23T04:37:57.277Z,4.55
2022-12-23T04:40:24.548Z,4.72
2022-12-23T04:42:51.831Z,4.90
2022-12-23T04:45:19.085Z,4.97
2022-12-23T04:47:46.387Z,4.72
2022-12-23T04:50:17.120Z,4.70
2022-12-23T04:52:44.549Z,4.82
2022-12-23T04:55:12.264Z,4.78
2022-12-23T04:57:40.013Z,4.47
2022-12-23T05:00:07.545Z,5.20
2022-12-23T05:02:34.958Z,4.70
2022-12-23T05:05:02.456Z,4.68
2022-12-23T05:07:29.789Z,4.60
2022-12-23T05:10:01.556Z,4.82
2022-12-23T05:12:29.944Z,5.75
2022-12-23T05:14:57.319Z,4.50
2022-12-23T05:17:24.669Z,4.82
2022-12-23T05:19:51.934Z,4.82
2022-12-23T05:22:19.233Z,5.00
2022-12-23T05:24:46.585Z,5.20
2022-12-23T05:27:13.870Z,5.25
2022-12-23T05:29:41.188Z,4.63
2022-12-23T05:32:08.589Z,5.70
2022-12-23T05:34:35.917Z,4.95
2022-12-23T05:37:03.123Z,5.22
2022-12-23T05:39:30.339Z,5.35
2022-12-23T05:41:57.621Z,4.70
2022-12-23T05:44:24.896Z,5.15
2022-12-23T05:46:52.188Z,5.50
2022-12-23T05:49:19.492Z,5.60
2022-12-23T05:51:46.771Z,4.95
2022-12-23T05:54:14.081Z,4.90
2022-12-23T05:56:41.545Z,4.80
2022-12-23T05:59:08.782Z,4.60
2022-12-23T06:01:36.079Z,5.30
2022-12-23T06:04:03.576Z,4.97
2022-12-23T06:06:31.046Z,4.72
2022-12-23T06:09:00.014Z,4.50
2022-12-23T06:13:54.840Z,4.47
2022-12-23T06:16:22.222Z,4.95
2022-12-23T06:18:49.529Z,4.40
2022-12-23T06:21:16.863Z,4.50
2022-12-23T06:23:44.167Z,4.18
2022-12-23T06:26:11.400Z,4.25
2022-12-23T06:28:38.657Z,4.63
2022-12-23T06:31:06.169Z,4.50
2022-12-23T06:33:33.371Z,4.35
2022-12-23T06:36:00.695Z,4.32
2022-12-23T06:38:27.883Z,4.20
2022-12-23T06:40:55.232Z,4.20
2022-12-23T06:43:22.488Z,6.35
2022-12-23T06:45:49.933Z,5.60
2022-12-23T06:48:17.432Z,6.18
2022-12-23T06:50:44.693Z,6.13
2022-12-23T06:53:11.917Z,5.75
2022-12-23T06:55:39.256Z,5.65
2022-12-23T06:58:06.682Z,5.07
2022-12-23T07:00:34.092Z,5.10
2022-12-23T07:03:01.608Z,4.50
2022-12-23T07:05:36.471Z,4.40
2022-12-23T07:08:04.449Z,5.18
2022-12-23T07:10:31.734Z,4.70
2022-12-23T07:12:58.984Z,4.63
2022-12-23T07:15:26.242Z,4.70
2022-12-23T07:17:54.975Z,4.65
2022-12-23T07:20:22.236Z,4.47
2022-12-23T07:22:50.312Z,4.88
2022-12-23T07:25:17.587Z,5.32
2022-12-23T07:27:44.842Z,4.80
2022-12-23T07:30:12.289Z,5.03
2022-12-23T07:32:39.594Z,4.82
2022-12-23T07:35:07.171Z,5.43
2022-12-23T07:37:34.380Z,5.60
2022-12-23T07:40:08.133Z,5.07
2022-12-23T07:42:45.665Z,5.28
2022-12-23T07:45:13.962Z,4.85
2022-12-23T07:47:41.295Z,5.03
2022-12-23T07:50:08.711Z,5.03
2022-12-23T07:52:36.134Z,5.07
2022-12-23T07:55:03.396Z,4.88
2022-12-23T07:57:30.585Z,5.03
2022-12-23T07:59:58.051Z,4.90
2022-12-23T08:02:25.767Z,5.63
2022-12-23T08:04:53.250Z,5.28
2022-12-23T08:07:20.497Z,4.85
2022-12-23T08:09:47.737Z,5.75
2022-12-23T08:12:15.067Z,5.28
2022-12-23T08:14:42.378Z,5.70
2022-12-23T08:17:09.769Z,5.68
2022-12-23T08:19:37.111Z,6.00
2022-12-23T08:22:04.377Z,5.85
2022-12-23T08:24:31.615Z,5.25
2022-12-23T08:26:58.885Z,6.60
2022-12-23T08:29:29.899Z,6.38
2022-12-23T08:31:59.850Z,6.95
2022-12-23T08:34:27.139Z,6.10
2022-12-23T08:36:54.422Z,6.63
2022-12-23T08:39:22.101Z,6.82
2022-12-23T08:41:49.460Z,6.13
2022-12-23T08:44:17.307Z,6.68
2022-12-23T08:46:44.692Z,9.30
2022-12-23T08:49:12.124Z,13.60
2022-12-23T08:51:39.453Z,11.57
2022-12-23T08:54:06.750Z,8.43
2022-12-23T08:56:35.537Z,8.40
2022-12-23T08:59:03.177Z,7.90
2022-12-23T09:01:31.467Z,7.65
2022-12-23T09:03:59.213Z,7.93
2022-12-23T09:06:30.012Z,8.30
2022-12-23T09:08:57.659Z,8.02
2022-12-23T09:11:26.795Z,8.43
2022-12-23T09:13:54.427Z,7.57
2022-12-23T09:16:22.133Z,7.82
2022-12-23T09:18:49.347Z,8.18
2022-12-23T09:21:18.280Z,8.40
2022-12-23T09:23:45.860Z,8.40
2022-12-23T09:26:14.957Z,8.50
2022-12-23T09:28:42.186Z,8.25
2022-12-23T09:31:13.576Z,9.35
2022-12-23T09:33:41.108Z,8.70
2022-12-23T09:36:08.619Z,9.23
2022-12-23T09:38:36.313Z,9.57
2022-12-23T09:41:04.734Z,8.50
2022-12-23T09:43:41.212Z,8.57
2022-12-23T09:46:26.132Z,8.10
2022-12-23T09:49:02.214Z,8.57
2022-12-23T09:51:30.621Z,9.10
2022-12-23T09:54:17.542Z,9.65
2022-12-23T09:57:03.786Z,9.55
2022-12-23T09:59:46.387Z,9.23
2022-12-23T10:02:34.262Z,9.93
2022-12-23T10:05:10.763Z,10.43
2022-12-23T10:07:44.924Z,10.05
2022-12-23T10:10:18.255Z,9.70
2022-12-23T10:12:47.905Z,10.23
2022-12-23T10:15:23.083Z,9.90
2022-12-23T10:17:53.027Z,9.45
2022-12-23T10:20:25.517Z,9.63
2022-12-23T10:22:53.707Z,9.52
2022-12-23T10:25:26.953Z,9.98
2022-12-23T10:27:54.393Z,9.35
2022-12-23T10:35:40.857Z,7.47
2022-12-23T10:38:20.890Z,8.48
2022-12-23T10:40:55.218Z,8.85
2022-12-23T10:43:25.674Z,8.95
2022-12-23T10:46:08.074Z,8.45
2022-12-23T10:48:38.410Z,8.15
2022-12-23T10:51:09.292Z,9.07
2022-12-23T10:53:42.577Z,8.48
2022-12-23T10:56:09.947Z,8.57
2022-12-23T10:58:43.074Z,8.38
2022-12-23T11:01:18.896Z,8.48
2022-12-23T11:03:58.859Z,8.45
2022-12-23T11:06:31.513Z,7.85
2022-12-23T11:09:03.276Z,8.43
2022-12-23T11:11:56.981Z,7.50
2022-12-23T11:14:32.023Z,8.07
2022-12-23T11:16:59.377Z,8.70
2022-12-23T11:19:26.696Z,8.07
2022-12-23T11:22:03.055Z,8.98
2022-12-23T11:24:39.542Z,8.15
2022-12-23T11:27:12.469Z,8.27
2022-12-23T11:29:40.766Z,8.55
2022-12-23T11:32:16.964Z,8.48
2022-12-23T11:34:45.890Z,8.85
2022-12-23T11:37:24.828Z,8.82
2022-12-23T11:39:52.150Z,9.27
2022-12-23T11:42:24.501Z,8.52
2022-12-23T11:44:54.283Z,11.07
2022-12-23T11:47:25.244Z,11.07
2022-12-23T11:49:56.933Z,11.70
2022-12-23T11:52:25.289Z,11.77
2022-12-23T11:54:54.934Z,11.13
2022-12-23T11:57:24.239Z,13.38
2022-12-23T11:59:56.324Z,11.57
2022-12-23T12:02:36.756Z,12.88
2022-12-23T12:05:16.346Z,14.00
2022-12-23T12:07:46.915Z,12.07
2022-12-23T12:10:19.335Z,12.63
2022-12-23T12:12:52.790Z,12.60
2022-12-23T12:15:42.363Z,11.88
2022-12-23T12:18:12.234Z,12.18
2022-12-23T12:20:47.261Z,11.98
2022-12-23T12:23:23.769Z,12.80
2022-12-23T12:25:53.590Z,10.90
2022-12-23T12:28:31.739Z,11.82
2022-12-23T12:31:04.916Z,12.68
2022-12-23T12:33:36.413Z,13.23
2022-12-23T12:36:07.196Z,13.93
2022-12-23T12:38:36.844Z,12.93
2022-12-23T12:41:33.506Z,13.65
2022-12-23T12:44:05.262Z,13.07
2022-12-23T12:46:40.263Z,12.70
2022-12-23T12:49:28.009Z,13.30
2022-12-23T12:52:02.509Z,13.25
2022-12-23T12:54:35.963Z,12.48
2022-12-23T12:57:04.151Z,11.98
2022-12-23T12:59:36.503Z,12.40
2022-12-23T13:02:22.806Z,11.35
2022-12-23T13:04:56.344Z,11.25
2022-12-23T13:07:26.650Z,11.02
2022-12-23T13:10:01.361Z,11.90
2022-12-23T13:12:47.338Z,11.00
2022-12-23T13:15:21.944Z,10.68
2022-12-23T13:18:01.909Z,10.30
2022-12-23T13:20:57.472Z,10.63
2022-12-23T13:23:45.902Z,10.00
2022-12-23T13:26:19.254Z,9.50
2022-12-23T13:28:46.521Z,9.02
2022-12-23T13:31:26.594Z,10.55
2022-12-23T13:34:05.486Z,10.73
2022-12-23T13:36:42.139Z,9.88
2022-12-23T13:39:21.081Z,10.30
2022-12-23T13:41:51.135Z,9.60
2022-12-23T13:44:18.818Z,10.27
2022-12-23T13:46:52.342Z,9.88
2022-12-23T13:49:26.071Z,9.70
2022-12-23T13:51:58.240Z,9.05
2022-12-23T13:54:38.815Z,10.13
2022-12-23T13:57:26.341Z,9.32
2022-12-23T14:00:04.949Z,9.60
2022-12-23T14:02:42.153Z,9.32
2022-12-23T14:05:27.832Z,9.73
2022-12-23T14:07:55.191Z,10.38
2022-12-23T14:10:23.689Z,10.32
2022-12-23T14:12:53.831Z,10.07
2022-12-23T14:15:24.183Z,10.00
2022-12-23T14:17:51.550Z,10.35
2022-12-23T14:20:27.836Z,10.38
2022-12-23T14:23:01.351Z,9.48
2022-12-23T14:25:28.536Z,9.32
2022-12-23T14:28:10.735Z,9.05
2022-12-23T14:30:47.992Z,10.32
2022-12-23T14:33:26.700Z,9.52
2022-12-23T14:35:57.016Z,8.80
2022-12-23T14:38:32.245Z,9.13
2022-12-23T14:41:19.962Z,10.07
2022-12-23T14:43:47.196Z,9.85
2022-12-23T14:46:33.507Z,9.68
2022-12-23T14:49:29.894Z,10.25
2022-12-23T14:51:50.921Z,10.38
2022-12-23T14:54:19.324Z,9.85
2022-12-23T14:57:03.642Z,9.70
2022-12-23T14:59:38.417Z,9.80
2022-12-23T15:02:35.470Z,9.65
2022-12-23T15:05:03.380Z,10.25
2022-12-23T15:07:42.676Z,9.32
2022-12-23T15:10:10.094Z,9.70
2022-12-23T15:12:38.946Z,9.75
2022-12-23T15:15:07.941Z,9.65
2022-12-23T15:17:36.445Z,11.20
2022-12-23T15:20:24.540Z,10.63
2022-12-23T15:22:55.171Z,9.23
2022-12-23T15:25:25.154Z,10.77
2022-12-23T15:28:00.947Z,10.15
2022-12-23T15:30:29.962Z,11.15
2022-12-23T15:32:59.169Z,10.85
2022-12-23T15:35:32.286Z,11.73
2022-12-23T15:38:00.947Z,11.40
2022-12-23T15:40:33.901Z,11.15
2022-12-23T15:43:01.805Z,12.30
2022-12-23T15:45:35.233Z,10.88
2022-12-23T15:48:03.567Z,9.43
2022-12-23T15:50:31.140Z,10.15
2022-12-23T15:53:03.903Z,8.88
2022-12-23T15:55:32.432Z,9.50
2022-12-23T15:58:00.773Z,9.43
2022-12-23T16:00:31.717Z,8.95
2022-12-23T16:03:01.662Z,9.40
2022-12-23T16:05:34.412Z,9.27
2022-12-23T16:08:11.661Z,9.35
2022-12-23T16:10:39.463Z,9.52
2022-12-23T16:13:16.448Z,10.00
2022-12-23T16:15:43.696Z,10.48
2022-12-23T16:18:14.284Z,10.52
2022-12-23T16:20:46.488Z,10.30
2022-12-23T16:23:14.210Z,11.80
2022-12-23T16:25:45.470Z,11.50
2022-12-23T16:28:21.629Z,10.60
2022-12-23T16:30:50.189Z,11.90
2022-12-23T16:33:20.488Z,12.98
2022-12-23T16:35:47.764Z,11.70
2022-12-23T16:38:22.131Z,11.60
2022-12-23T16:40:53.648Z,11.77
2022-12-23T16:43:21.668Z,11.07
2022-12-23T16:46:02.673Z,11.15
2022-12-23T16:48:30.071Z,11.50
2022-12-23T16:50:57.857Z,9.88
2022-12-23T16:53:25.243Z,10.02
2022-12-23T16:55:56.824Z,10.15
2022-12-23T16:58:27.692Z,10.23
2022-12-23T17:00:55.266Z,10.20
2022-12-23T17:03:22.658Z,9.98
2022-12-23T17:05:49.971Z,9.13
2022-12-23T17:08:17.325Z,8.48
2022-12-23T17:10:45.056Z,8.38
2022-12-23T17:13:13.287Z,9.25
2022-12-23T17:15:40.607Z,9.55
2022-12-23T17:18:12.526Z,8.85
2022-12-23T17:20:39.924Z,9.48
2022-12-23T17:23:07.464Z,10.25
2022-12-23T17:25:34.710Z,9.75
2022-12-23T17:28:02.152Z,9.88
2022-12-23T17:30:29.579Z,9.07
2022-12-23T17:32:57.872Z,8.98
2022-12-23T17:35:25.797Z,9.27
2022-12-23T17:37:53.723Z,8.82
2022-12-23T17:40:23.276Z,8.85
2022-12-23T17:42:50.602Z,8.27
2022-12-23T17:45:27.227Z,8.95
2022-12-23T17:47:54.728Z,8.63
2022-12-23T17:50:22.205Z,8.63
2022-12-23T17:52:52.217Z,8.55
2022-12-23T17:55:23.449Z,8.05
2022-12-23T17:57:55.515Z,8.25
2022-12-23T18:00:33.657Z,8.52
2022-12-23T18:03:01.685Z,8.95
2022-12-23T18:05:30.266Z,7.38
2022-12-23T18:07:58.300Z,7.80
2022-12-23T18:10:27.489Z,7.55
2022-12-23T18:12:57.357Z,7.68
2022-12-23T18:15:25.887Z,8.30
2022-12-23T18:17:53.936Z,6.82
2022-12-23T18:20:22.188Z,6.78
2022-12-23T18:22:50.566Z,6.47
2022-12-23T18:25:19.184Z,5.82
2022-12-23T18:27:46.705Z,6.40
2022-12-23T18:30:14.164Z,5.72
2022-12-23T18:32:42.027Z,5.82
2022-12-23T18:35:25.322Z,5.88
2022-12-23T18:37:53.042Z,6.30
2022-12-23T18:40:20.539Z,6.15
2022-12-23T18:42:48.008Z,6.28
2022-12-23T18:45:24.502Z,6.30
2022-12-23T18:47:51.757Z,5.93
2022-12-23T18:50:19.003Z,4.97
2022-12-23T18:52:46.703Z,4.65
2022-12-23T18:55:14.074Z,5.35
2022-12-23T18:57:41.464Z,5.25
2022-12-23T19:00:12.629Z,5.72
2022-12-23T19:02:39.933Z,4.88
2022-12-23T19:05:07.572Z,5.65
2022-12-23T19:07:35.099Z,4.82
2022-12-23T19:10:02.344Z,5.28
2022-12-23T19:12:29.772Z,4.93
2022-12-23T19:14:57.067Z,5.13
2022-12-23T19:17:24.318Z,5.55
2022-12-23T19:19:51.509Z,5.15
2022-12-23T19:22:18.835Z,5.40
2022-12-23T19:25:04.050Z,5.05
2022-12-23T19:27:33.274Z,5.15
2022-12-23T19:30:00.637Z,5.53
2022-12-23T19:35:51.452Z,6.03
2022-12-23T19:38:27.584Z,5.13
2022-12-23T19:41:04.555Z,5.65
2022-12-23T19:43:32.649Z,4.88
2022-12-23T19:46:02.925Z,4.60
2022-12-23T19:48:31.139Z,4.38
2022-12-23T19:51:01.785Z,4.53
2022-12-23T19:53:34.336Z,5.40
2022-12-23T19:56:03.619Z,5.80
2022-12-23T19:58:35.862Z,4.80
2022-12-23T20:01:07.896Z,5.30
2022-12-23T20:03:38.397Z,4.82
2022-12-23T20:06:09.207Z,4.93
2022-12-23T20:08:40.589Z,4.57
2022-12-23T20:11:14.803Z,5.05
2022-12-23T20:13:42.468Z,4.28
2022-12-23T20:16:10.424Z,5.10
2022-12-23T20:18:41.515Z,4.75
2022-12-23T20:21:08.826Z,5.00
2022-12-23T20:23:36.233Z,4.80
2022-12-23T20:26:03.684Z,5.53
2022-12-23T20:28:33.824Z,4.90
2022-12-23T20:31:07.720Z,5.00
2022-12-23T20:33:39.643Z,5.40
2022-12-23T20:36:07.366Z,5.38
2022-12-23T20:38:38.679Z,5.28
2022-12-23T20:41:07.940Z,5.43
2022-12-23T20:43:36.211Z,4.78
2022-12-23T20:46:04.321Z,4.30
2022-12-23T20:48:34.599Z,4.88
2022-12-23T20:51:05.928Z,4.25
2022-12-23T20:53:33.416Z,4.57
2022-12-23T20:56:04.459Z,4.30
2022-12-23T20:58:50.643Z,4.32
2022-12-23T21:01:17.914Z,3.72
2022-12-23T21:03:45.304Z,3.72
2022-12-23T21:06:15.182Z,3.13
2022-12-23T21:08:43.314Z,3.70
2022-12-23T21:11:10.650Z,3.50
2022-12-23T21:13:40.322Z,2.60
2022-12-23T21:16:09.091Z,2.55
2022-12-23T21:18:36.798Z,3.13
2022-12-23T21:21:05.486Z,2.88
2022-12-23T21:23:32.969Z,3.35
2022-12-23T21:26:26.552Z,2.83
2022-12-23T21:28:54.420Z,2.88
2022-12-23T21:31:23.672Z,3.13
2022-12-23T21:33:51.926Z,2.83
2022-12-23T21:36:20.929Z,2.65
2022-12-23T21:38:49.054Z,2.42
2022-12-23T21:41:17.496Z,2.58
2022-12-23T21:43:44.771Z,2.22
2022-12-23T21:46:16.346Z,2.58
2022-12-23T21:48:44.396Z,2.35
2022-12-23T21:51:16.120Z,2.10
2022-12-23T21:53:44.335Z,2.63
2022-12-23T21:56:12.843Z,2.53
2022-12-23T21:58:40.153Z,2.70
2022-12-23T22:01:11.712Z,2.72
2022-12-23T22:03:39.100Z,2.78
2022-12-23T22:06:16.555Z,2.53
2022-12-23T22:08:44.276Z,2.17
2022-12-23T22:11:16.008Z,2.60
2022-12-23T22:13:44.972Z,2.30
2022-12-23T22:16:14.520Z,2.28
2022-12-23T22:18:42.133Z,1.90
2022-12-23T22:21:11.105Z,1.95
2022-12-23T22:23:38.569Z,2.33
2022-12-23T22:26:06.243Z,2.15
2022-12-23T22:28:34.060Z,2.28
2022-12-23T22:31:05.335Z,2.42
2022-12-23T22:33:33.105Z,2.72
2022-12-23T22:36:00.659Z,2.53
2022-12-23T22:38:27.983Z,2.30
2022-12-23T22:40:55.341Z,2.38
2022-12-23T22:43:22.636Z,2.40
2022-12-23T22:45:56.184Z,2.28
2022-12-23T22:48:23.782Z,2.10
2022-12-23T22:50:51.212Z,2.10
2022-12-23T22:53:18.477Z,2.65
2022-12-23T22:55:45.717Z,2.22
2022-12-23T22:58:12.959Z,2.75
2022-12-23T23:00:40.219Z,2.38
2022-12-23T23:03:07.487Z,1.88
2022-12-23T23:05:34.884Z,2.60
2022-12-23T23:08:02.138Z,3.22
2022-12-23T23:10:29.650Z,1.90
2022-12-23T23:12:56.865Z,2.55
2022-12-23T23:15:24.127Z,2.65
2022-12-23T23:17:51.366Z,2.35
2022-12-23T23:20:18.642Z,2.17
2022-12-23T23:22:45.914Z,3.15
2022-12-23T23:25:13.248Z,2.17
2022-12-23T23:27:40.578Z,2.67
2022-12-23T23:30:08.163Z,2.97
2022-12-23T23:32:35.517Z,2.63
2022-12-23T23:35:08.608Z,2.55
2022-12-23T23:37:38.395Z,2.55
2022-12-23T23:40:06.466Z,3.10
2022-12-23T23:42:33.732Z,3.53
2022-12-23T23:45:00.924Z,2.60
2022-12-23T23:47:28.189Z,2.38
2022-12-23T23:49:55.466Z,3.22
2022-12-23T23:52:22.992Z,2.70
2022-12-23T23:54:50.231Z,2.63
2022-12-23T23:57:17.456Z,3.65
2022-12-23T23:59:44.668Z,2.75
